»·PEaware :: DCM206 KSNA-KSBA

DCM206 :: KSNA-KSBA

FLIGHT INFORMATION

Flight Status: Arrived
Operator:
DotCom
More flights by this operator :: More flights under this callsign
Pilot: Nick L. (7253)
Aircraft: BOEING 737-800
(B738)
More flights by this aircraft type
Origin: KSNA John Wayne-Orange Co
United States
Destination: KSBA Santa Barbara Mun
United States
More flights between these airports :: More routes between these airports
Route: SXC V208 VTU VTU282 KWANG
File this flight plan on PilotEdge
Remarks: RMK / SIMBRIEF
Altitude:
(Current/Filed)
10,000ft
Speed:
(Current/Filed)
350kts
Departed: 21-Feb-21 01:49 PM
Arrived: 21-Feb-21 02:24 PM
Distance/Time
Traveled:
108nm/0:35
Distance/Time
To Go:
Arrived

Flight Plot

Page will automatically refresh every two minutes.


Map Options




Map Legend


Flown Route
Filed Route
Departure Airport
Arrival Airport
Navaid (VOR, NDB)
Fix

Horizontal Profiles

Position Reports

Time Latitude Longitude Heading Altitude Ground
Speed
21-Feb-21 13:07 33.672446 -117.866851 210 65ft 0kts
21-Feb-21 13:08 33.672446 -117.866851 210 65ft 0kts
21-Feb-21 13:09 33.672446 -117.866851 210 65ft 0kts
21-Feb-21 13:10 33.672446 -117.866851 210 65ft 0kts
21-Feb-21 13:11 33.672446 -117.866851 210 65ft 0kts
21-Feb-21 13:12 33.672446 -117.866851 210 65ft 0kts
21-Feb-21 13:13 33.672446 -117.866851 210 65ft 0kts
21-Feb-21 13:14 33.672446 -117.866851 210 65ft 0kts
21-Feb-21 13:15 33.672446 -117.866851 210 65ft 0kts
21-Feb-21 13:16 33.672446 -117.866851 210 65ft 0kts
21-Feb-21 13:17 33.672446 -117.866851 210 65ft 0kts
21-Feb-21 13:18 33.672446 -117.866851 210 65ft 0kts
21-Feb-21 13:19 33.672446 -117.866851 210 65ft 0kts
21-Feb-21 13:20 33.672446 -117.866851 210 65ft 0kts
21-Feb-21 13:21 33.672446 -117.866851 210 65ft 0kts
21-Feb-21 13:22 33.672446 -117.866851 210 65ft 0kts
21-Feb-21 13:23 33.672446 -117.866851 210 65ft 0kts
21-Feb-21 13:24 33.672446 -117.866851 210 65ft 0kts
21-Feb-21 13:25 33.672446 -117.866851 210 65ft 0kts
21-Feb-21 13:26 33.672446 -117.866851 210 65ft 0kts
21-Feb-21 13:27 33.672446 -117.866851 210 65ft 0kts
21-Feb-21 13:28 33.672446 -117.866851 210 65ft 0kts
21-Feb-21 13:29 33.672322 -117.866986 240 65ft 2kts
21-Feb-21 13:30 33.671547 -117.868515 214 65ft 13kts
21-Feb-21 13:31 33.668959 -117.871095 220 65ft 14kts
21-Feb-21 13:32 33.668840 -117.871217 220 65ft 0kts
21-Feb-21 13:33 33.668788 -117.871270 220 65ft 1kts
21-Feb-21 13:34 33.668334 -117.871738 220 65ft 0kts
21-Feb-21 13:35 33.667990 -117.872100 221 65ft 3kts
21-Feb-21 13:36 33.667969 -117.872123 221 65ft 0kts
21-Feb-21 13:37 33.667969 -117.872123 221 65ft 0kts
21-Feb-21 13:38 33.667969 -117.872123 221 65ft 0kts
21-Feb-21 13:39 33.667969 -117.872123 221 65ft 0kts
21-Feb-21 13:40 33.667969 -117.872123 221 65ft 0kts
21-Feb-21 13:41 33.667969 -117.872123 221 65ft 0kts
21-Feb-21 13:42 33.667969 -117.872123 221 65ft 0kts
21-Feb-21 13:43 33.667583 -117.872624 247 65ft 0kts
21-Feb-21 13:44 33.667583 -117.872624 247 65ft 0kts
21-Feb-21 13:45 33.667554 -117.872837 267 65ft 2kts
21-Feb-21 13:46 33.668191 -117.873575 27 65ft 0kts
21-Feb-21 13:47 33.668198 -117.873570 27 65ft 0kts
21-Feb-21 13:48 33.692448 -117.858507 28 1011ft 152kts
21-Feb-21 13:49 33.737632 -117.831129 27 2673ft 217kts
21-Feb-21 13:50 33.795700 -117.789388 54 5073ft 269kts
21-Feb-21 13:51 33.774898 -117.714461 160 7673ft 287kts
21-Feb-21 13:52 33.697457 -117.712012 181 7674ft 279kts
21-Feb-21 13:53 33.619833 -117.714919 181 7674ft 279kts
21-Feb-21 13:54 33.542291 -117.717797 181 7674ft 279kts
21-Feb-21 13:55 33.470615 -117.741350 235 7675ft 279kts
21-Feb-21 13:56 33.453047 -117.831308 261 7673ft 279kts
21-Feb-21 13:57 33.440697 -117.923497 260 8564ft 285kts
21-Feb-21 13:58 33.427673 -118.021262 261 9688ft 330kts
21-Feb-21 13:59 33.411661 -118.142129 261 9673ft 383kts
21-Feb-21 14:00 33.395048 -118.267973 261 9674ft 383kts
21-Feb-21 14:01 33.385043 -118.394392 279 9679ft 382kts
21-Feb-21 14:02 33.435412 -118.504766 309 9673ft 383kts
21-Feb-21 14:03 33.503527 -118.602526 310 9674ft 383kts
21-Feb-21 14:04 33.571825 -118.700114 309 9674ft 383kts
21-Feb-21 14:05 33.640158 -118.797967 309 9674ft 383kts
21-Feb-21 14:06 33.708476 -118.896060 309 9674ft 383kts
21-Feb-21 14:07 33.782467 -118.986534 327 9675ft 383kts
21-Feb-21 14:08 33.882916 -119.024153 353 9675ft 383kts
21-Feb-21 14:09 33.988893 -119.036074 355 9674ft 383kts
21-Feb-21 14:10 34.091981 -119.058053 332 9371ft 360kts
21-Feb-21 14:11 34.150355 -119.132962 297 8193ft 281kts
21-Feb-21 14:12 34.185128 -119.216110 297 6617ft 275kts
21-Feb-21 14:13 34.218038 -119.294902 297 6006ft 245kts
21-Feb-21 14:14 34.247171 -119.364791 297 5390ft 227kts
21-Feb-21 14:15 34.275387 -119.432557 297 4500ft 224kts
21-Feb-21 14:16 34.303218 -119.499528 297 3672ft 219kts
21-Feb-21 14:17 34.329382 -119.566092 295 3655ft 223kts
21-Feb-21 14:18 34.354112 -119.629982 295 3333ft 196kts
21-Feb-21 14:19 34.375440 -119.685165 295 2274ft 167kts
21-Feb-21 14:20 34.398605 -119.729916 319 1471ft 151kts
21-Feb-21 14:21 34.427916 -119.764530 297 835ft 148kts
21-Feb-21 14:22 34.428351 -119.813427 268 451ft 149kts
21-Feb-21 14:23 34.427499 -119.851478 241 19ft 15kts
21-Feb-21 14:24 34.426450 -119.850720 89 19ft 23kts

Navigation Log

Ident Type
Flight plan parsing failed, navigation log unavailable